Terreton, Idaho
Current Conditions -  °F | °C
As of 2:53 PM on Friday 19 Dec 2014 (Local Time) from KIDA Reporting Station
Overcast Overcast  
Wind Chill: 39°   Ceiling: 4800
Heat Index: 39°   Visibility: 10mi
Dew Point: 32°   Wind: 3mph
Humidity: 76%   Direction: 170°S
Pressure: 30.06"   Gusts: NA
Location:  43.84°N, 112.44°W
Report Text: KIDA 192153Z 17003KT 10SM SCT037 BKN048 OVC060 04/00 A3006 RMK AO2 RAB22E53 SLP192 P0000 T00390000
Loading
Personal Weather Stations






























Interactive Weather Map New forecast layout! Learn more

10-Day Weather Forecast

Advertisements
Track Severe Weather on mobile